sensor_id;sensor_type;location;lat;lon;timestamp;P1;durP1;ratioP1;P2;durP2;ratioP2
76591;SDS011;65481;47.600;19.682;2023-02-28T00:00:53;27.65;;;14.20;;
76591;SDS011;65481;47.600;19.682;2023-02-28T00:05:53;25.15;;;12.68;;
76591;SDS011;65481;47.600;19.682;2023-02-28T00:10:54;30.40;;;14.85;;
76591;SDS011;65481;47.600;19.682;2023-02-28T00:16:02;30.63;;;13.57;;
76591;SDS011;65481;47.600;19.682;2023-02-28T00:21:04;28.13;;;13.52;;
76591;SDS011;65481;47.600;19.682;2023-02-28T00:26:05;31.10;;;14.30;;
76591;SDS011;65481;47.600;19.682;2023-02-28T00:31:06;23.05;;;13.38;;
76591;SDS011;65481;47.600;19.682;2023-02-28T00:36:07;23.05;;;12.75;;
76591;SDS011;65481;47.600;19.682;2023-02-28T00:41:10;28.23;;;14.65;;
76591;SDS011;65481;47.600;19.682;2023-02-28T00:46:11;28.48;;;15.60;;
76591;SDS011;65481;47.600;19.682;2023-02-28T00:51:12;24.92;;;12.70;;
76591;SDS011;65481;47.600;19.682;2023-02-28T00:56:12;24.05;;;13.05;;
76591;SDS011;65481;47.600;19.682;2023-02-28T01:01:13;20.83;;;11.65;;
76591;SDS011;65481;47.600;19.682;2023-02-28T01:06:14;27.27;;;12.80;;
76591;SDS011;65481;47.600;19.682;2023-02-28T01:11:15;27.27;;;14.00;;
76591;SDS011;65481;47.600;19.682;2023-02-28T01:16:17;26.30;;;12.35;;
76591;SDS011;65481;47.600;19.682;2023-02-28T01:21:19;24.85;;;12.55;;
76591;SDS011;65481;47.600;19.682;2023-02-28T01:26:21;26.95;;;11.93;;
76591;SDS011;65481;47.600;19.682;2023-02-28T01:31:22;19.23;;;10.60;;
76591;SDS011;65481;47.600;19.682;2023-02-28T01:36:23;21.40;;;11.27;;
76591;SDS011;65481;47.600;19.682;2023-02-28T01:41:26;21.75;;;11.45;;
76591;SDS011;65481;47.600;19.682;2023-02-28T01:46:30;20.75;;;11.27;;
76591;SDS011;65481;47.600;19.682;2023-02-28T01:56:55;22.98;;;11.25;;
76591;SDS011;65481;47.600;19.682;2023-02-28T02:02:00;20.35;;;11.60;;
76591;SDS011;65481;47.600;19.682;2023-02-28T02:07:02;22.05;;;12.13;;
76591;SDS011;65481;47.600;19.682;2023-02-28T02:12:06;19.60;;;11.45;;
76591;SDS011;65481;47.600;19.682;2023-02-28T02:17:40;21.08;;;11.07;;
76591;SDS011;65481;47.600;19.682;2023-02-28T02:28:10;19.98;;;10.32;;
76591;SDS011;65481;47.600;19.682;2023-02-28T02:38:33;18.15;;;10.95;;
76591;SDS011;65481;47.600;19.682;2023-02-28T02:54:02;19.10;;;10.73;;
76591;SDS011;65481;47.600;19.682;2023-02-28T02:59:09;20.02;;;10.48;;
76591;SDS011;65481;47.600;19.682;2023-02-28T03:04:16;19.83;;;10.93;;
76591;SDS011;65481;47.600;19.682;2023-02-28T03:09:18;17.42;;;10.57;;
76591;SDS011;65481;47.600;19.682;2023-02-28T03:14:22;20.20;;;10.68;;
76591;SDS011;65481;47.600;19.682;2023-02-28T03:19:59;18.77;;;10.43;;
76591;SDS011;65481;47.600;19.682;2023-02-28T03:30:14;15.43;;;9.48;;
76591;SDS011;65481;47.600;19.682;2023-02-28T03:35:25;16.77;;;10.20;;
76591;SDS011;65481;47.600;19.682;2023-02-28T03:40:30;16.83;;;10.18;;
76591;SDS011;65481;47.600;19.682;2023-02-28T03:45:33;18.75;;;9.55;;
76591;SDS011;65481;47.600;19.682;2023-02-28T03:50:39;19.85;;;9.30;;
76591;SDS011;65481;47.600;19.682;2023-02-28T03:55:45;19.48;;;9.88;;
76591;SDS011;65481;47.600;19.682;2023-02-28T04:00:51;18.65;;;10.77;;
76591;SDS011;65481;47.600;19.682;2023-02-28T04:05:58;16.85;;;10.35;;
76591;SDS011;65481;47.600;19.682;2023-02-28T04:11:04;21.10;;;11.20;;
76591;SDS011;65481;47.600;19.682;2023-02-28T04:16:17;17.98;;;10.15;;
76591;SDS011;65481;47.600;19.682;2023-02-28T04:21:17;22.50;;;10.35;;
76591;SDS011;65481;47.600;19.682;2023-02-28T04:26:21;19.17;;;11.25;;
76591;SDS011;65481;47.600;19.682;2023-02-28T04:31:21;17.60;;;10.65;;
76591;SDS011;65481;47.600;19.682;2023-02-28T04:36:22;19.13;;;10.70;;
76591;SDS011;65481;47.600;19.682;2023-02-28T04:41:23;18.60;;;9.88;;
76591;SDS011;65481;47.600;19.682;2023-02-28T04:46:23;19.05;;;11.05;;
76591;SDS011;65481;47.600;19.682;2023-02-28T04:51:24;19.83;;;11.38;;
76591;SDS011;65481;47.600;19.682;2023-02-28T04:56:25;25.80;;;11.80;;
76591;SDS011;65481;47.600;19.682;2023-02-28T05:01:26;22.58;;;11.20;;
76591;SDS011;65481;47.600;19.682;2023-02-28T05:06:36;21.42;;;11.05;;
76591;SDS011;65481;47.600;19.682;2023-02-28T05:11:37;23.35;;;12.50;;
76591;SDS011;65481;47.600;19.682;2023-02-28T05:16:39;20.98;;;11.65;;
76591;SDS011;65481;47.600;19.682;2023-02-28T05:21:40;24.42;;;12.13;;
76591;SDS011;65481;47.600;19.682;2023-02-28T05:26:49;23.52;;;12.15;;
76591;SDS011;65481;47.600;19.682;2023-02-28T05:31:52;24.70;;;14.35;;
76591;SDS011;65481;47.600;19.682;2023-02-28T05:36:52;25.48;;;14.27;;
76591;SDS011;65481;47.600;19.682;2023-02-28T05:41:53;28.67;;;14.52;;
76591;SDS011;65481;47.600;19.682;2023-02-28T05:46:53;34.45;;;16.25;;
76591;SDS011;65481;47.600;19.682;2023-02-28T05:51:53;30.77;;;14.25;;
76591;SDS011;65481;47.600;19.682;2023-02-28T05:56:54;27.58;;;12.95;;
76591;SDS011;65481;47.600;19.682;2023-02-28T06:01:55;18.17;;;10.18;;
76591;SDS011;65481;47.600;19.682;2023-02-28T06:06:55;25.58;;;11.57;;
76591;SDS011;65481;47.600;19.682;2023-02-28T06:12:02;27.52;;;14.52;;
76591;SDS011;65481;47.600;19.682;2023-02-28T06:17:05;23.60;;;12.35;;
76591;SDS011;65481;47.600;19.682;2023-02-28T06:22:06;17.65;;;10.07;;
76591;SDS011;65481;47.600;19.682;2023-02-28T06:27:06;17.67;;;9.48;;
76591;SDS011;65481;47.600;19.682;2023-02-28T06:32:07;13.63;;;8.70;;
76591;SDS011;65481;47.600;19.682;2023-02-28T06:37:07;14.82;;;7.70;;
76591;SDS011;65481;47.600;19.682;2023-02-28T06:42:08;13.25;;;6.32;;
76591;SDS011;65481;47.600;19.682;2023-02-28T06:47:08;15.25;;;7.03;;
76591;SDS011;65481;47.600;19.682;2023-02-28T06:52:09;16.15;;;6.70;;
76591;SDS011;65481;47.600;19.682;2023-02-28T06:57:09;10.30;;;6.13;;
76591;SDS011;65481;47.600;19.682;2023-02-28T07:02:10;12.90;;;6.75;;
76591;SDS011;65481;47.600;19.682;2023-02-28T07:07:10;20.35;;;10.13;;
76591;SDS011;65481;47.600;19.682;2023-02-28T07:12:11;23.65;;;12.40;;
76591;SDS011;65481;47.600;19.682;2023-02-28T07:17:11;27.90;;;14.68;;
76591;SDS011;65481;47.600;19.682;2023-02-28T07:22:12;16.92;;;9.38;;
76591;SDS011;65481;47.600;19.682;2023-02-28T07:27:12;13.80;;;7.70;;
76591;SDS011;65481;47.600;19.682;2023-02-28T07:32:23;14.18;;;7.93;;
76591;SDS011;65481;47.600;19.682;2023-02-28T07:37:24;11.52;;;7.43;;
76591;SDS011;65481;47.600;19.682;2023-02-28T07:42:24;10.52;;;6.68;;
76591;SDS011;65481;47.600;19.682;2023-02-28T07:47:24;11.90;;;6.68;;
76591;SDS011;65481;47.600;19.682;2023-02-28T07:52:25;10.23;;;6.45;;
76591;SDS011;65481;47.600;19.682;2023-02-28T07:57:26;13.23;;;6.65;;
76591;SDS011;65481;47.600;19.682;2023-02-28T08:02:27;12.13;;;7.45;;
76591;SDS011;65481;47.600;19.682;2023-02-28T08:07:27;16.15;;;8.70;;
76591;SDS011;65481;47.600;19.682;2023-02-28T08:12:27;13.65;;;7.95;;
76591;SDS011;65481;47.600;19.682;2023-02-28T08:17:28;9.27;;;5.57;;
76591;SDS011;65481;47.600;19.682;2023-02-28T08:22:29;11.02;;;5.45;;
76591;SDS011;65481;47.600;19.682;2023-02-28T08:27:29;7.78;;;4.72;;
76591;SDS011;65481;47.600;19.682;2023-02-28T08:32:30;11.25;;;6.47;;
76591;SDS011;65481;47.600;19.682;2023-02-28T08:37:33;11.02;;;6.32;;
76591;SDS011;65481;47.600;19.682;2023-02-28T08:42:33;21.45;;;11.52;;
76591;SDS011;65481;47.600;19.682;2023-02-28T08:47:34;8.35;;;4.70;;
76591;SDS011;65481;47.600;19.682;2023-02-28T08:52:34;12.35;;;6.75;;
76591;SDS011;65481;47.600;19.682;2023-02-28T08:57:35;11.85;;;4.78;;
76591;SDS011;65481;47.600;19.682;2023-02-28T09:02:35;11.60;;;6.13;;
76591;SDS011;65481;47.600;19.682;2023-02-28T09:07:37;8.15;;;5.70;;
76591;SDS011;65481;47.600;19.682;2023-02-28T09:12:37;9.00;;;4.75;;
76591;SDS011;65481;47.600;19.682;2023-02-28T09:17:38;35.83;;;15.40;;
76591;SDS011;65481;47.600;19.682;2023-02-28T09:22:38;9.98;;;6.20;;
76591;SDS011;65481;47.600;19.682;2023-02-28T09:27:39;8.27;;;5.47;;
76591;SDS011;65481;47.600;19.682;2023-02-28T09:32:39;11.43;;;6.53;;
76591;SDS011;65481;47.600;19.682;2023-02-28T09:37:40;13.40;;;7.80;;
76591;SDS011;65481;47.600;19.682;2023-02-28T09:42:40;12.85;;;6.82;;
76591;SDS011;65481;47.600;19.682;2023-02-28T09:47:41;12.60;;;6.97;;
76591;SDS011;65481;47.600;19.682;2023-02-28T09:52:45;11.25;;;6.35;;
76591;SDS011;65481;47.600;19.682;2023-02-28T09:57:50;10.40;;;6.00;;
76591;SDS011;65481;47.600;19.682;2023-02-28T10:08:14;9.95;;;6.15;;
76591;SDS011;65481;47.600;19.682;2023-02-28T10:13:52;8.95;;;6.25;;
76591;SDS011;65481;47.600;19.682;2023-02-28T10:19:20;9.27;;;5.97;;
76591;SDS011;65481;47.600;19.682;2023-02-28T10:29:32;10.20;;;6.57;;
76591;SDS011;65481;47.600;19.682;2023-02-28T10:34:33;11.85;;;7.10;;
76591;SDS011;65481;47.600;19.682;2023-02-28T10:39:41;10.18;;;6.35;;
76591;SDS011;65481;47.600;19.682;2023-02-28T10:44:43;10.30;;;5.95;;
76591;SDS011;65481;47.600;19.682;2023-02-28T10:49:47;10.77;;;6.20;;
76591;SDS011;65481;47.600;19.682;2023-02-28T10:54:50;9.55;;;6.50;;
76591;SDS011;65481;47.600;19.682;2023-02-28T11:00:16;11.85;;;6.15;;
76591;SDS011;65481;47.600;19.682;2023-02-28T11:05:29;11.18;;;6.22;;
76591;SDS011;65481;47.600;19.682;2023-02-28T11:10:30;31.83;;;14.45;;
76591;SDS011;65481;47.600;19.682;2023-02-28T11:15:34;15.88;;;8.95;;
76591;SDS011;65481;47.600;19.682;2023-02-28T11:20:35;11.48;;;6.78;;
76591;SDS011;65481;47.600;19.682;2023-02-28T11:25:36;8.75;;;5.97;;
76591;SDS011;65481;47.600;19.682;2023-02-28T11:30:39;14.45;;;8.82;;
76591;SDS011;65481;47.600;19.682;2023-02-28T11:35:41;8.23;;;5.53;;
76591;SDS011;65481;47.600;19.682;2023-02-28T12:07:18;14.20;;;8.38;;
76591;SDS011;65481;47.600;19.682;2023-02-28T12:18:13;12.88;;;9.20;;
76591;SDS011;65481;47.600;19.682;2023-02-28T12:29:32;13.02;;;7.75;;
76591;SDS011;65481;47.600;19.682;2023-02-28T12:34:31;12.25;;;6.82;;
76591;SDS011;65481;47.600;19.682;2023-02-28T12:39:44;9.70;;;6.05;;
76591;SDS011;65481;47.600;19.682;2023-02-28T12:44:49;23.50;;;12.18;;
76591;SDS011;65481;47.600;19.682;2023-02-28T12:55:06;8.52;;;6.15;;
76591;SDS011;65481;47.600;19.682;2023-02-28T13:00:18;10.52;;;7.05;;
76591;SDS011;65481;47.600;19.682;2023-02-28T13:11:02;11.18;;;8.05;;
76591;SDS011;65481;47.600;19.682;2023-02-28T13:16:07;11.25;;;7.78;;
76591;SDS011;65481;47.600;19.682;2023-02-28T13:21:21;11.00;;;6.95;;
76591;SDS011;65481;47.600;19.682;2023-02-28T13:27:10;15.88;;;9.75;;
76591;SDS011;65481;47.600;19.682;2023-02-28T13:47:23;12.43;;;6.60;;
76591;SDS011;65481;47.600;19.682;2023-02-28T13:52:28;17.77;;;9.23;;
76591;SDS011;65481;47.600;19.682;2023-02-28T14:08:27;9.95;;;6.60;;
76591;SDS011;65481;47.600;19.682;2023-02-28T14:13:43;12.73;;;7.10;;
76591;SDS011;65481;47.600;19.682;2023-02-28T14:18:50;9.98;;;6.40;;
76591;SDS011;65481;47.600;19.682;2023-02-28T14:40:11;12.32;;;9.15;;
76591;SDS011;65481;47.600;19.682;2023-02-28T14:45:19;11.57;;;7.10;;
76591;SDS011;65481;47.600;19.682;2023-02-28T14:50:21;10.60;;;6.82;;
76591;SDS011;65481;47.600;19.682;2023-02-28T14:55:31;11.38;;;7.25;;
76591;SDS011;65481;47.600;19.682;2023-02-28T15:00:36;30.63;;;18.55;;
76591;SDS011;65481;47.600;19.682;2023-02-28T15:06:19;12.43;;;6.97;;
76591;SDS011;65481;47.600;19.682;2023-02-28T15:11:18;31.38;;;18.02;;
76591;SDS011;65481;47.600;19.682;2023-02-28T15:16:25;10.05;;;6.88;;
76591;SDS011;65481;47.600;19.682;2023-02-28T15:21:31;14.55;;;9.52;;
76591;SDS011;65481;47.600;19.682;2023-02-28T15:26:45;22.63;;;13.38;;
76591;SDS011;65481;47.600;19.682;2023-02-28T15:31:49;15.52;;;10.02;;
76591;SDS011;65481;47.600;19.682;2023-02-28T15:37:00;17.60;;;9.18;;
76591;SDS011;65481;47.600;19.682;2023-02-28T15:47:31;14.13;;;9.75;;
76591;SDS011;65481;47.600;19.682;2023-02-28T15:52:43;17.65;;;7.88;;
76591;SDS011;65481;47.600;19.682;2023-02-28T15:57:45;11.50;;;6.38;;
76591;SDS011;65481;47.600;19.682;2023-02-28T16:02:48;17.60;;;12.00;;
76591;SDS011;65481;47.600;19.682;2023-02-28T16:07:49;36.10;;;21.08;;
76591;SDS011;65481;47.600;19.682;2023-02-28T16:12:50;25.20;;;14.57;;
76591;SDS011;65481;47.600;19.682;2023-02-28T16:17:50;20.33;;;11.35;;
76591;SDS011;65481;47.600;19.682;2023-02-28T16:22:51;30.55;;;15.73;;
76591;SDS011;65481;47.600;19.682;2023-02-28T16:27:52;30.25;;;16.35;;
76591;SDS011;65481;47.600;19.682;2023-02-28T16:32:54;15.57;;;8.23;;
76591;SDS011;65481;47.600;19.682;2023-02-28T16:37:56;17.55;;;10.52;;
76591;SDS011;65481;47.600;19.682;2023-02-28T16:42:57;18.00;;;11.32;;
76591;SDS011;65481;47.600;19.682;2023-02-28T16:47:59;18.92;;;10.07;;
76591;SDS011;65481;47.600;19.682;2023-02-28T16:53:00;17.17;;;8.88;;
76591;SDS011;65481;47.600;19.682;2023-02-28T16:58:01;17.90;;;10.65;;
76591;SDS011;65481;47.600;19.682;2023-02-28T17:03:02;21.55;;;14.98;;
76591;SDS011;65481;47.600;19.682;2023-02-28T17:08:03;22.75;;;14.07;;
76591;SDS011;65481;47.600;19.682;2023-02-28T17:13:03;32.13;;;18.50;;
76591;SDS011;65481;47.600;19.682;2023-02-28T17:18:08;47.00;;;26.92;;
76591;SDS011;65481;47.600;19.682;2023-02-28T17:23:13;48.13;;;29.20;;
76591;SDS011;65481;47.600;19.682;2023-02-28T17:28:14;35.30;;;20.15;;
76591;SDS011;65481;47.600;19.682;2023-02-28T17:33:15;33.92;;;19.33;;
76591;SDS011;65481;47.600;19.682;2023-02-28T17:38:17;37.70;;;21.60;;
76591;SDS011;65481;47.600;19.682;2023-02-28T17:43:19;43.75;;;23.92;;
76591;SDS011;65481;47.600;19.682;2023-02-28T17:48:19;37.92;;;21.40;;
76591;SDS011;65481;47.600;19.682;2023-02-28T17:53:20;40.13;;;21.83;;
76591;SDS011;65481;47.600;19.682;2023-02-28T17:58:23;48.42;;;26.08;;
76591;SDS011;65481;47.600;19.682;2023-02-28T18:03:24;51.30;;;27.98;;
76591;SDS011;65481;47.600;19.682;2023-02-28T18:08:26;49.47;;;29.42;;
76591;SDS011;65481;47.600;19.682;2023-02-28T18:13:26;41.30;;;26.00;;
76591;SDS011;65481;47.600;19.682;2023-02-28T18:18:27;46.63;;;27.85;;
76591;SDS011;65481;47.600;19.682;2023-02-28T18:23:28;47.90;;;28.58;;
76591;SDS011;65481;47.600;19.682;2023-02-28T18:28:29;47.47;;;27.75;;
76591;SDS011;65481;47.600;19.682;2023-02-28T18:33:34;38.63;;;21.77;;
76591;SDS011;65481;47.600;19.682;2023-02-28T18:38:35;28.17;;;16.00;;
76591;SDS011;65481;47.600;19.682;2023-02-28T18:43:36;33.45;;;16.88;;
76591;SDS011;65481;47.600;19.682;2023-02-28T18:48:39;29.45;;;16.63;;
76591;SDS011;65481;47.600;19.682;2023-02-28T18:53:41;35.05;;;19.05;;
76591;SDS011;65481;47.600;19.682;2023-02-28T18:58:43;33.30;;;17.88;;
76591;SDS011;65481;47.600;19.682;2023-02-28T19:03:46;31.85;;;17.33;;
76591;SDS011;65481;47.600;19.682;2023-02-28T19:08:52;36.00;;;20.88;;
76591;SDS011;65481;47.600;19.682;2023-02-28T19:13:55;60.13;;;31.17;;
76591;SDS011;65481;47.600;19.682;2023-02-28T19:18:57;164.93;;;64.43;;
76591;SDS011;65481;47.600;19.682;2023-02-28T19:24:00;228.70;;;87.45;;
76591;SDS011;65481;47.600;19.682;2023-02-28T19:29:02;109.85;;;48.20;;
76591;SDS011;65481;47.600;19.682;2023-02-28T19:34:04;183.88;;;76.03;;
76591;SDS011;65481;47.600;19.682;2023-02-28T19:39:05;194.70;;;79.53;;
76591;SDS011;65481;47.600;19.682;2023-02-28T19:44:06;137.10;;;58.35;;
76591;SDS011;65481;47.600;19.682;2023-02-28T19:49:07;146.63;;;62.15;;
76591;SDS011;65481;47.600;19.682;2023-02-28T19:54:09;92.40;;;46.17;;
76591;SDS011;65481;47.600;19.682;2023-02-28T19:59:10;144.38;;;64.18;;
76591;SDS011;65481;47.600;19.682;2023-02-28T20:04:11;105.72;;;51.97;;
76591;SDS011;65481;47.600;19.682;2023-02-28T20:09:12;132.27;;;58.25;;
76591;SDS011;65481;47.600;19.682;2023-02-28T20:14:15;126.00;;;54.78;;
76591;SDS011;65481;47.600;19.682;2023-02-28T20:19:17;122.55;;;51.20;;
76591;SDS011;65481;47.600;19.682;2023-02-28T20:24:18;58.95;;;29.33;;
76591;SDS011;65481;47.600;19.682;2023-02-28T20:29:22;82.00;;;37.45;;
76591;SDS011;65481;47.600;19.682;2023-02-28T20:34:23;78.43;;;34.25;;
76591;SDS011;65481;47.600;19.682;2023-02-28T20:39:24;92.57;;;41.75;;
76591;SDS011;65481;47.600;19.682;2023-02-28T20:44:25;128.45;;;57.30;;
76591;SDS011;65481;47.600;19.682;2023-02-28T20:49:26;75.05;;;31.83;;
76591;SDS011;65481;47.600;19.682;2023-02-28T20:54:27;65.32;;;31.98;;
76591;SDS011;65481;47.600;19.682;2023-02-28T20:59:29;68.03;;;33.58;;
76591;SDS011;65481;47.600;19.682;2023-02-28T21:04:30;56.15;;;28.63;;
76591;SDS011;65481;47.600;19.682;2023-02-28T21:09:31;69.60;;;32.55;;
76591;SDS011;65481;47.600;19.682;2023-02-28T21:14:32;63.65;;;33.03;;
76591;SDS011;65481;47.600;19.682;2023-02-28T21:19:32;364.52;;;113.43;;
76591;SDS011;65481;47.600;19.682;2023-02-28T21:24:33;103.60;;;40.22;;
76591;SDS011;65481;47.600;19.682;2023-02-28T21:29:33;286.98;;;90.57;;
76591;SDS011;65481;47.600;19.682;2023-02-28T21:34:34;250.05;;;87.25;;
76591;SDS011;65481;47.600;19.682;2023-02-28T21:39:34;425.42;;;134.00;;
76591;SDS011;65481;47.600;19.682;2023-02-28T21:44:35;314.85;;;110.18;;
76591;SDS011;65481;47.600;19.682;2023-02-28T21:49:36;209.60;;;83.18;;
76591;SDS011;65481;47.600;19.682;2023-02-28T21:54:37;124.32;;;53.50;;
76591;SDS011;65481;47.600;19.682;2023-02-28T21:59:37;168.05;;;62.63;;
76591;SDS011;65481;47.600;19.682;2023-02-28T22:04:38;48.72;;;25.63;;
76591;SDS011;65481;47.600;19.682;2023-02-28T22:09:38;210.63;;;71.10;;
76591;SDS011;65481;47.600;19.682;2023-02-28T22:14:39;118.75;;;46.15;;
76591;SDS011;65481;47.600;19.682;2023-02-28T22:19:40;96.65;;;43.95;;
76591;SDS011;65481;47.600;19.682;2023-02-28T22:24:41;96.80;;;46.03;;
76591;SDS011;65481;47.600;19.682;2023-02-28T22:29:41;116.60;;;52.83;;
76591;SDS011;65481;47.600;19.682;2023-02-28T22:34:42;60.78;;;28.23;;
76591;SDS011;65481;47.600;19.682;2023-02-28T22:39:43;42.40;;;22.75;;
76591;SDS011;65481;47.600;19.682;2023-02-28T22:44:43;49.10;;;26.63;;
76591;SDS011;65481;47.600;19.682;2023-02-28T22:49:45;46.42;;;24.08;;
76591;SDS011;65481;47.600;19.682;2023-02-28T22:54:49;44.92;;;24.48;;
76591;SDS011;65481;47.600;19.682;2023-02-28T22:59:50;41.42;;;23.20;;
76591;SDS011;65481;47.600;19.682;2023-02-28T23:04:50;53.83;;;27.55;;
76591;SDS011;65481;47.600;19.682;2023-02-28T23:09:53;52.45;;;28.17;;
76591;SDS011;65481;47.600;19.682;2023-02-28T23:14:53;49.40;;;26.17;;
76591;SDS011;65481;47.600;19.682;2023-02-28T23:19:54;62.85;;;33.20;;
76591;SDS011;65481;47.600;19.682;2023-02-28T23:24:55;61.53;;;31.42;;
76591;SDS011;65481;47.600;19.682;2023-02-28T23:29:56;55.30;;;28.77;;
76591;SDS011;65481;47.600;19.682;2023-02-28T23:34:56;55.45;;;28.98;;
76591;SDS011;65481;47.600;19.682;2023-02-28T23:39:59;47.30;;;26.73;;
76591;SDS011;65481;47.600;19.682;2023-02-28T23:45:00;48.15;;;26.73;;
76591;SDS011;65481;47.600;19.682;2023-02-28T23:50:00;50.28;;;26.95;;
76591;SDS011;65481;47.600;19.682;2023-02-28T23:55:01;52.47;;;26.13;;
